Home > Products > Valid Products > TAF

000
FTUS43 KEAX 100107 AAA
TAFMCI
TAF AMD
KMCI 100107Z 1001/1024 33010KT P6SM SCT250
     FM101300 16008KT P6SM SCT030 BKN050=



000
FTUS43 KEAX 100107 AAA
TAFSTJ
TAF AMD
KSTJ 100107Z 1001/1024 33011KT P6SM SCT250
     FM101300 16008KT P6SM SCT030 BKN050=



000
FTUS43 KEAX 100107 AAA
TAFMKC
TAF AMD
KMKC 100107Z 1001/1024 31007KT P6SM SCT250
     FM101300 14007KT P6SM SCT030 BKN050=



000
FTUS43 KEAX 100107 AAA
TAFMKC
TAF AMD
KMKC 100107Z 1001/1024 31007KT P6SM SCT250
     FM101300 14007KT P6SM SCT030 BKN050=



000
FTUS43 KEAX 100107 AAA
TAFMCI
TAF AMD
KMCI 100107Z 1001/1024 33010KT P6SM SCT250
     FM101300 16008KT P6SM SCT030 BKN050=



000
FTUS43 KEAX 100107 AAA
TAFSTJ
TAF AMD
KSTJ 100107Z 1001/1024 33011KT P6SM SCT250
     FM101300 16008KT P6SM SCT030 BKN050=



000
FTUS43 KEAX 092321
TAFSTJ
TAF
KSTJ 092321Z 1000/1024 33013G23KT P6SM SCT250
     FM100200 32008KT P6SM FEW150
     FM101300 16008KT P6SM SCT030 BKN050=



000
FTUS43 KEAX 092321
TAFSTJ
TAF
KSTJ 092321Z 1000/1024 33013G23KT P6SM SCT250
     FM100200 32008KT P6SM FEW150
     FM101300 16008KT P6SM SCT030 BKN050=



000
FTUS43 KEAX 092321
TAFMKC
TAF
KMKC 092321Z 1000/1024 31012G20KT P6SM SCT250
     FM100100 30006KT P6SM FEW150
     FM101300 14007KT P6SM SCT030 BKN050=



000
FTUS43 KEAX 092321
TAFMCI
TAF
KMCI 092321Z 1000/1024 33014G24KT P6SM SCT250
     FM100200 32008KT P6SM FEW150
     FM101300 16008KT P6SM SCT030 BKN050=



000
FTUS43 KEAX 092321
TAFMKC
TAF
KMKC 092321Z 1000/1024 31012G20KT P6SM SCT250
     FM100100 30006KT P6SM FEW150
     FM101300 14007KT P6SM SCT030 BKN050=



000
FTUS43 KEAX 092321
TAFMCI
TAF
KMCI 092321Z 1000/1024 33014G24KT P6SM SCT250
     FM100200 32008KT P6SM FEW150
     FM101300 16008KT P6SM SCT030 BKN050=



000
FTUS43 KEAX 091720
TAFSTJ
TAF
KSTJ 091720Z 0918/1018 34018G28KT P6SM FEW025 SCT250
     FM100200 32008KT P6SM SCT050 SCT150
     FM101300 16008KT P6SM SCT030 BKN050=



000
FTUS43 KEAX 091720
TAFSTJ
TAF
KSTJ 091720Z 0918/1018 34018G28KT P6SM FEW025 SCT250
     FM100200 32008KT P6SM SCT050 SCT150
     FM101300 16008KT P6SM SCT030 BKN050=



000
FTUS43 KEAX 091720
TAFMCI
TAF
KMCI 091720Z 0918/1018 34018G27KT P6SM FEW025 SCT250
     FM100200 32008KT P6SM SCT050 SCT150
     FM101300 16008KT P6SM SCT030 BKN050=



000
FTUS43 KEAX 091720
TAFMCI
TAF
KMCI 091720Z 0918/1018 34018G27KT P6SM FEW025 SCT250
     FM100200 32008KT P6SM SCT050 SCT150
     FM101300 16008KT P6SM SCT030 BKN050=



000
FTUS43 KEAX 091720
TAFMKC
TAF
KMKC 091720Z 0918/1018 32015G25KT P6SM FEW025 SCT250
     FM100200 30006KT P6SM SCT050 SCT150
     FM101300 14007KT P6SM SCT030 BKN050=



000
FTUS43 KEAX 091720
TAFMKC
TAF
KMKC 091720Z 0918/1018 32015G25KT P6SM FEW025 SCT250
     FM100200 30006KT P6SM SCT050 SCT150
     FM101300 14007KT P6SM SCT030 BKN050=



000
FTUS43 KEAX 091402 AAA
TAFMKC
TAF AMD
KMKC 091402Z 0914/1012 33017G24KT P6SM FEW100
      TEMPO 0914/0915 BKN028
     FM100200 33010KT P6SM SCT150=



000
FTUS43 KEAX 091402 AAA
TAFMKC
TAF AMD
KMKC 091402Z 0914/1012 33017G24KT P6SM FEW100
      TEMPO 0914/0915 BKN028
     FM100200 33010KT P6SM SCT150=



000
FTUS43 KEAX 091124
TAFMCI
TAF
KMCI 091124Z 0912/1012 34018G27KT P6SM FEW100
     FM100200 33012KT P6SM SCT150=



000
FTUS43 KEAX 091124
TAFMKC
TAF
KMKC 091124Z 0912/1012 33017G24KT P6SM FEW100
     FM100200 33010KT P6SM SCT150=



000
FTUS43 KEAX 091124
TAFSTJ
TAF
KSTJ 091124Z 0912/1012 34019G28KT P6SM FEW100
     FM100200 33012KT P6SM SCT150=



000
FTUS43 KEAX 090524
TAFMKC
TAF
KMKC 090524Z 0906/1006 31005KT P6SM SKC
     FM091400 33015G25KT P6SM SCT100
     FM100200 33010KT P6SM BKN080=



000
FTUS43 KEAX 090524
TAFSTJ
TAF
KSTJ 090524Z 0906/1006 33007KT P6SM SKC
     FM091400 33015G25KT P6SM SCT100
     FM100200 33010KT P6SM BKN080=



000
FTUS43 KEAX 090524
TAFMCI
TAF
KMCI 090524Z 0906/1006 31005KT P6SM BKN150
     FM091400 33015G25KT P6SM SCT100
     FM100200 33010KT P6SM BKN080=



000
FTUS43 KEAX 090212 AAA
TAFSTJ
TAF AMD
KSTJ 090212Z 0902/0924 33015G25KT P6SM SCT030=



000
FTUS43 KEAX 090212 AAA
TAFSTJ
TAF AMD
KSTJ 090212Z 0902/0924 33015G25KT P6SM SCT030=



000
FTUS43 KEAX 090211 AAA
TAFMKC
TAF AMD
KMKC 090211Z 0902/0924 33012G20KT P6SM SCT030=



000
FTUS43 KEAX 090211 AAA
TAFMKC
TAF AMD
KMKC 090211Z 0902/0924 33012G20KT P6SM SCT030=



000
FTUS43 KEAX 090210 AAA
TAFMCI
TAF AMD
KMCI 090210Z 0902/0924 33015G25KT P6SM SCT030=



000
FTUS43 KEAX 090210 AAA
TAFMCI
TAF AMD
KMCI 090210Z 0902/0924 33015G25KT P6SM SCT030=



000
FTUS43 KEAX 082320
TAFMKC
TAF
KMKC 082320Z 0900/0924 32015G25KT P6SM BKN040
     FM090300 33012G25KT P6SM BKN025
     FM091100 33015G25KT P6SM SCT030=



000
FTUS43 KEAX 082320
TAFMCI
TAF
KMCI 082320Z 0900/0924 32018G28KT P6SM BKN040
     FM090300 33015G25KT P6SM BKN025
     FM091100 33015G25KT P6SM SCT030=



000
FTUS43 KEAX 082320
TAFSTJ
TAF
KSTJ 082320Z 0900/0924 33018G28KT P6SM BKN040
     FM090300 33018G28KT P6SM BKN025
     FM091100 33015G25KT P6SM SCT030=



000
FTUS43 KEAX 082027 AAA
TAFSTJ
TAF AMD
KSTJ 082027Z 0820/0918 33022G35KT P6SM VCSH OVC040
     FM082300 33018G24KT P6SM BKN040
     FM090300 33014KT P6SM BKN025
     FM091400 33015G23KT P6SM SCT050=



000
FTUS43 KEAX 081728
TAFMCI
TAF
KMCI 081728Z 0818/0918 33026G38KT P6SM -SHSN OVC040
     FM082300 33018G24KT P6SM BKN040
     FM090300 33014KT P6SM BKN025
     FM091400 33015G23KT P6SM SCT050=



000
FTUS43 KEAX 081728
TAFSTJ
TAF
KSTJ 081728Z 0818/0918 33025G35KT P6SM -SHSN OVC040
     FM082300 33018G24KT P6SM BKN040
     FM090300 33014KT P6SM BKN025
     FM091400 33015G23KT P6SM SCT050=



000
FTUS43 KEAX 081728
TAFMKC
TAF
KMKC 081728Z 0818/0918 33020G30KT P6SM -SHSN OVC040
     FM082300 33015G23KT P6SM BKN040
     FM090300 33012KT P6SM BKN025
     FM091400 33013G21KT P6SM SCT050=



000
FTUS43 KEAX 081125
TAFMCI
TAF
KMCI 081125Z 0812/0912 32018G28KT P6SM -SN OVC050
      TEMPO 0813/0816 4SM -SHSN BKN035
     FM081600 33026G38KT P6SM OVC050
      TEMPO 0816/0818 5SM -SHSN BKN035
     FM082300 33018G24KT P6SM BKN050
     FM090300 32014KT P6SM SCT050=



000
FTUS43 KEAX 081125
TAFMKC
TAF
KMKC 081125Z 0812/0912 32016G25KT P6SM -SN OVC050
      TEMPO 0813/0816 4SM -SHSN BKN035
     FM081600 33023G34KT P6SM OVC050
      TEMPO 0816/0818 5SM -SHSN BKN035
     FM082300 33015G22KT P6SM BKN050
     FM090300 32012KT P6SM SCT050=



000
FTUS43 KEAX 081125
TAFSTJ
TAF
KSTJ 081125Z 0812/0912 33027G35KT P6SM -SN OVC050
      TEMPO 0812/0816 4SM -SHSN BKN035
     FM081600 33030G40KT P6SM OVC050
      TEMPO 0816/0818 5SM -SHSN BKN035
     FM082300 33018G24KT P6SM BKN050
     FM090300 33014KT P6SM SCT050=



000
FTUS43 KEAX 081125
TAFMCI
TAF
KMCI 081125Z 0812/0912 32018G28KT P6SM -SN OVC050
      TEMPO 0813/0816 4SM -SHSN BKN035
     FM081600 33026G38KT P6SM OVC050
      TEMPO 0816/0818 5SM -SHSN BKN035
     FM082300 33018G24KT P6SM BKN050
     FM090300 32014KT P6SM SCT050=



000
FTUS43 KEAX 081125
TAFMKC
TAF
KMKC 081125Z 0812/0912 32016G25KT P6SM -SN OVC050
      TEMPO 0813/0816 4SM -SHSN BKN035
     FM081600 33023G34KT P6SM OVC050
      TEMPO 0816/0818 5SM -SHSN BKN035
     FM082300 33015G22KT P6SM BKN050
     FM090300 32012KT P6SM SCT050=



000
FTUS43 KEAX 081125
TAFSTJ
TAF
KSTJ 081125Z 0812/0912 33027G35KT P6SM -SN OVC050
      TEMPO 0812/0816 4SM -SHSN BKN035
     FM081600 33030G40KT P6SM OVC050
      TEMPO 0816/0818 5SM -SHSN BKN035
     FM082300 33018G24KT P6SM BKN050
     FM090300 33014KT P6SM SCT050=



000
FTUS43 KEAX 080520
TAFMKC
TAF
KMKC 080520Z 0806/0906 31015G25KT P6SM VCSH OVC030
      TEMPO 0809/0813 5SM -SHSN OVC025
     FM081800 32020G30KT P6SM OVC035
     FM090100 33015G25KT P6SM SCT040=



000
FTUS43 KEAX 080520
TAFMCI
TAF
KMCI 080520Z 0806/0906 31018G28KT P6SM VCSH OVC030
      TEMPO 0809/0813 5SM -SHSN OVC025
     FM081800 32025G35KT P6SM OVC035
     FM090100 33015G25KT P6SM SCT040=



000
FTUS43 KEAX 080520
TAFMCI
TAF
KMCI 080520Z 0806/0906 31018G28KT P6SM VCSH OVC035
      TEMPO 0809/0813 5SM -SHSN OVC025
     FM081800 32025G35KT P6SM OVC040
     FM090100 33015G25KT P6SM SCT045=



000
FTUS43 KEAX 080520
TAFMKC
TAF
KMKC 080520Z 0806/0906 31015G25KT P6SM VCSH OVC035
      TEMPO 0809/0813 5SM -SHSN OVC025
     FM081800 32020G30KT P6SM OVC040
     FM090100 33015G25KT P6SM SCT045=



000
FTUS43 KEAX 080520
TAFSTJ
TAF
KSTJ 080520Z 0806/0906 32018G28KT P6SM VCSH OVC030
      TEMPO 0808/0812 5SM -SHSN OVC025
     FM081800 33025G35KT P6SM OVC035
     FM090100 33020G30KT P6SM SCT040=



000
FTUS43 KEAX 080326 AAB
TAFSTJ
TAF AMD
KSTJ 080326Z 0803/0824 30025G35KT P6SM VCSH BKN040
     FM080700 32020G30KT 5SM -SHSN OVC018
     FM081600 32025G35KT P6SM OVC035=



000
FTUS43 KEAX 080325 AAB
TAFMKC
TAF AMD
KMKC 080325Z 0803/0824 30020G30KT P6SM VCSH BKN035
     FM080700 31015G25KT 5SM -SHSN OVC020
     FM081600 33020G30KT P6SM OVC035=



000
FTUS43 KEAX 080325 AAB
TAFMCI
TAF AMD
KMCI 080325Z 0803/0824 30020G30KT P6SM VCSH BKN035
     FM080700 32018G28KT 5SM -SHSN OVC018
     FM081600 32020G30KT P6SM OVC035=



000
FTUS43 KEAX 080325 AAB
TAFMKC
TAF AMD
KMKC 080325Z 0803/0824 30020G30KT P6SM VCSH BKN035
     FM080700 31015G25KT 5SM -SHSN OVC020
     FM081600 33020G30KT P6SM OVC035=



000
FTUS43 KEAX 080043 AAA
TAFSTJ
TAF AMD
KSTJ 080043Z 0801/0824 30025G35KT P6SM BKN080
     FM080700 32020G30KT 5SM -SHSN OVC018
     FM081600 32025G35KT P6SM OVC035=



000
FTUS43 KEAX 080042 AAA
TAFMKC
TAF AMD
KMKC 080042Z 0801/0824 30020G30KT P6SM BKN080
     FM080700 31015G25KT 5SM -SHSN OVC020
     FM081600 33020G30KT P6SM OVC035=



000
FTUS43 KEAX 080042 AAA
TAFMCI
TAF AMD
KMCI 080042Z 0801/0824 30020G30KT P6SM BKN080
     FM080700 32018G28KT 5SM -SHSN OVC018
     FM081600 32020G30KT P6SM OVC035=



000
FTUS43 KEAX 072320
TAFMCI
TAF
KMCI 072320Z 0800/0824 30015G25KT P6SM BKN080
     FM080700 32018G28KT 5SM -SHSN OVC018
     FM081600 32020G30KT P6SM OVC035=



000
FTUS43 KEAX 072320
TAFSTJ
TAF
KSTJ 072320Z 0800/0824 30018G28KT P6SM BKN080
     FM080700 32020G30KT 5SM -SHSN OVC018
     FM081600 32025G35KT P6SM OVC035=



000
FTUS43 KEAX 072320
TAFMKC
TAF
KMKC 072320Z 0800/0824 30012G22KT P6SM BKN080
     FM080700 31015G25KT 5SM -SHSN OVC020
     FM081600 33020G30KT P6SM OVC035=



000
FTUS43 KEAX 071720
TAFSTJ
TAF
KSTJ 071720Z 0718/0818 31015G25KT P6SM BKN150
     FM080200 30015G25KT P6SM BKN040
     FM080800 31020G30KT 5SM -SHSN BKN020
     FM081500 32028G38KT 5SM -SHSN BKN035=



000
FTUS43 KEAX 071720
TAFMKC
TAF
KMKC 071720Z 0718/0818 31012G22KT P6SM BKN150
     FM080300 30015G25KT P6SM BKN040
     FM080900 31017G25KT 5SM -SHSN BKN020
     FM081500 32025G35KT 5SM -SHSN BKN035=



000
FTUS43 KEAX 071720
TAFMCI
TAF
KMCI 071720Z 0718/0818 31015G25KT P6SM BKN150
     FM080300 30015G25KT P6SM BKN040
     FM080900 31017G25KT 5SM -SHSN BKN020
     FM081500 32025G35KT 5SM -SHSN BKN035=



000
FTUS43 KEAX 071121
TAFMKC
TAF
KMKC 071121Z 0712/0812 23011KT P6SM BKN200 WS020/25045KT
     FM071400 26012KT P6SM BKN150
     FM071700 30018G27KT P6SM BKN120
     FM080100 30013KT P6SM OVC080
     FM080900 31014KT 5SM -SHSN BR BKN020=



000
FTUS43 KEAX 071121
TAFMCI
TAF
KMCI 071121Z 0712/0812 23012KT P6SM BKN200 WS020/25045KT
     FM071400 26013KT P6SM BKN150
     FM071700 30019G28KT P6SM BKN120
     FM080100 30014KT P6SM OVC080
     FM080900 31015G24KT 5SM -SHSN BR BKN020=



000
FTUS43 KEAX 071121
TAFSTJ
TAF
KSTJ 071121Z 0712/0812 23011KT P6SM BKN200 WS020/25045KT
     FM071400 27012KT P6SM BKN150
     FM071700 30022G31KT P6SM BKN120
     FM080200 30014KT P6SM OVC080
     FM080800 31017G26KT 5SM -SHSN BR BKN020=



000
FTUS43 KEAX 070520
TAFMCI
TAF
KMCI 070520Z 0706/0806 22012KT P6SM SCT180 WS020/25045KT
     FM071200 25012KT P6SM BKN150
     FM071700 29018G28KT P6SM BKN120
     FM080100 30015KT P6SM OVC080=



000
FTUS43 KEAX 070520
TAFMKC
TAF
KMKC 070520Z 0706/0806 22012KT P6SM SCT180 WS020/25045KT
     FM071200 25011KT P6SM BKN150
     FM071700 29015G25KT P6SM BKN120
     FM080100 30015KT P6SM OVC080=



000
FTUS43 KEAX 070520
TAFSTJ
TAF
KSTJ 070520Z 0706/0806 22010KT P6SM SCT180 WS020/25045KT
     FM071200 27012KT P6SM BKN150
     FM071700 30018G28KT P6SM BKN120
     FM080100 31015KT P6SM OVC080=



000
FTUS43 KEAX 070520
TAFMKC
TAF
KMKC 070520Z 0706/0806 22010KT P6SM SCT180 WS020/25045KT
     FM071200 25011KT P6SM BKN150
     FM071700 29015G25KT P6SM BKN120
     FM080100 30015KT P6SM OVC080=



000
FTUS43 KEAX 070520
TAFMCI
TAF
KMCI 070520Z 0706/0806 22013KT P6SM SCT180 WS020/25045KT
     FM071200 25012KT P6SM BKN150
     FM071700 29018G28KT P6SM BKN120
     FM080100 30015KT P6SM OVC080=



000
FTUS43 KEAX 070520
TAFSTJ
TAF
KSTJ 070520Z 0706/0806 22011KT P6SM SCT180 WS020/25045KT
     FM071200 27012KT P6SM BKN150
     FM071700 30018G28KT P6SM BKN120
     FM080100 31015KT P6SM OVC080=



    US Dept of Commerce
    National Oceanic and Atmospheric Administration
    National Weather Service
    1325 East West Highway
    Silver Spring, MD 20910
    Page Author: NWS Internet Services Team
Disclaimer
Information Quality
Credits
Glossary
Privacy Policy
Freedom of Information Act (FOIA)
About Us
Career Opportunities